createdAt,value
2019-05-14T00:00:59.347Z,10.62
2019-05-14T00:03:25.989Z,10.62
2019-05-14T00:05:53.760Z,10.49
2019-05-14T00:08:22.119Z,10.43
2019-05-14T00:10:48.953Z,10.27
2019-05-14T00:13:16.707Z,10.34
2019-05-14T00:15:43.324Z,10.26
2019-05-14T00:18:11.883Z,10.17
2019-05-14T00:20:38.587Z,10.15
2019-05-14T00:23:05.186Z,9.98
2019-05-14T00:25:31.782Z,10.14
2019-05-14T00:27:58.555Z,10.08
2019-05-14T00:30:25.230Z,10.11
2019-05-14T00:32:53.740Z,10.17
2019-05-14T00:35:21.545Z,10.25
2019-05-14T00:37:48.305Z,10.27
2019-05-14T00:40:15.025Z,10.25
2019-05-14T00:42:42.704Z,10.38
2019-05-14T00:45:11.557Z,10.37
2019-05-14T00:47:38.506Z,10.48
2019-05-14T00:50:06.226Z,10.35
2019-05-14T00:52:32.871Z,10.40
2019-05-14T00:55:01.120Z,10.51
2019-05-14T00:57:28.171Z,10.58
2019-05-14T00:59:54.790Z,10.50
2019-05-14T01:02:21.841Z,10.61
2019-05-14T01:04:51.711Z,10.65
2019-05-14T01:07:21.019Z,10.64
2019-05-14T01:09:47.536Z,10.56
2019-05-14T01:12:14.212Z,10.58
2019-05-14T01:14:42.426Z,10.57
2019-05-14T01:17:11.296Z,10.51
2019-05-14T01:19:37.914Z,10.54
2019-05-14T01:22:04.633Z,10.53
2019-05-14T01:24:33.546Z,10.54
2019-05-14T01:27:01.750Z,10.46
2019-05-14T01:29:28.527Z,10.47
2019-05-14T01:31:56.964Z,10.49
2019-05-14T01:34:23.934Z,10.50
2019-05-14T01:36:52.766Z,10.50
2019-05-14T01:39:21.202Z,10.48
2019-05-14T01:41:47.672Z,10.36
2019-05-14T01:44:14.311Z,10.37
2019-05-14T01:46:42.048Z,10.31
2019-05-14T01:49:08.869Z,10.06
2019-05-14T01:51:35.458Z,10.16
2019-05-14T01:54:03.186Z,10.10
2019-05-14T01:56:31.826Z,10.12
2019-05-14T01:58:58.370Z,10.01
2019-05-14T02:01:26.913Z,9.79
2019-05-14T02:03:53.520Z,9.65
2019-05-14T02:06:21.281Z,9.48
2019-05-14T02:08:48.355Z,9.62
2019-05-14T02:11:18.473Z,9.66
2019-05-14T02:13:48.257Z,9.63
2019-05-14T02:16:14.169Z,9.44
2019-05-14T02:18:42.179Z,9.47
2019-05-14T02:21:08.761Z,9.63
2019-05-14T02:23:36.422Z,9.59
2019-05-14T02:26:03.078Z,9.73
2019-05-14T02:28:31.644Z,9.71
2019-05-14T02:31:03.155Z,9.66
2019-05-14T02:33:30.314Z,9.61
2019-05-14T02:35:55.556Z,9.65
2019-05-14T02:38:22.322Z,9.56
2019-05-14T02:40:50.844Z,9.46
2019-05-14T02:43:20.077Z,9.28
2019-05-14T02:46:02.013Z,9.23
2019-05-14T02:48:19.858Z,9.25
2019-05-14T02:50:49.080Z,9.33
2019-05-14T02:53:15.468Z,9.27
2019-05-14T02:55:42.108Z,9.08
2019-05-14T02:58:09.919Z,9.04
2019-05-14T03:00:40.429Z,9.20
2019-05-14T03:03:05.722Z,9.24
2019-05-14T03:05:33.785Z,9.31
2019-05-14T03:08:00.409Z,9.16
2019-05-14T03:10:30.265Z,9.08
2019-05-14T03:12:58.848Z,9.06
2019-05-14T03:15:24.610Z,8.94
2019-05-14T03:17:51.458Z,8.83
2019-05-14T03:20:19.582Z,9.02
2019-05-14T03:23:02.607Z,8.93
2019-05-14T03:25:19.181Z,8.83
2019-05-14T03:27:44.662Z,9.04
2019-05-14T03:30:14.282Z,9.00
2019-05-14T03:32:42.727Z,8.85
2019-05-14T03:35:13.145Z,8.92
2019-05-14T03:37:39.070Z,8.92
2019-05-14T03:40:09.344Z,8.67
2019-05-14T03:42:39.987Z,8.75
2019-05-14T03:45:08.461Z,8.90
2019-05-14T03:47:39.117Z,8.80
2019-05-14T03:50:04.669Z,8.94
2019-05-14T03:52:31.393Z,8.90
2019-05-14T03:55:01.273Z,8.83
2019-05-14T03:57:29.194Z,8.86
2019-05-14T03:59:59.471Z,8.83
2019-05-14T04:02:25.203Z,8.90
2019-05-14T04:04:51.837Z,8.77
2019-05-14T04:07:20.304Z,8.88
2019-05-14T04:09:49.699Z,8.78
2019-05-14T04:12:19.253Z,8.70
2019-05-14T04:14:50.472Z,8.70
2019-05-14T04:17:32.569Z,8.69
2019-05-14T04:19:51.741Z,8.89
2019-05-14T04:22:21.982Z,8.90
2019-05-14T04:24:49.879Z,8.77
2019-05-14T04:27:20.424Z,8.73
2019-05-14T04:29:50.840Z,8.71
2019-05-14T04:32:20.186Z,8.71
2019-05-14T04:34:49.957Z,8.69
2019-05-14T04:37:20.068Z,8.97
2019-05-14T04:39:50.034Z,8.82
2019-05-14T04:42:15.113Z,8.94
2019-05-14T04:44:41.737Z,9.03
2019-05-14T04:47:22.726Z,9.05
2019-05-14T04:49:39.937Z,9.13
2019-05-14T04:52:05.584Z,9.00
2019-05-14T04:54:33.454Z,9.02
2019-05-14T04:57:00.760Z,8.97
2019-05-14T04:59:29.930Z,8.93
2019-05-14T05:01:59.732Z,9.01
2019-05-14T05:04:24.632Z,9.02
2019-05-14T05:06:51.277Z,8.97
2019-05-14T05:09:20.043Z,9.02
2019-05-14T05:11:49.505Z,9.19
2019-05-14T05:14:19.034Z,9.11
2019-05-14T05:16:45.140Z,9.07
2019-05-14T05:19:11.819Z,9.12
2019-05-14T05:21:40.430Z,9.32
2019-05-14T05:24:09.179Z,9.21
2019-05-14T05:26:35.666Z,9.32
2019-05-14T05:29:06.919Z,9.35
2019-05-14T05:31:30.912Z,9.34
2019-05-14T05:33:59.541Z,9.42
2019-05-14T05:36:26.207Z,9.57
2019-05-14T05:38:52.854Z,9.51
2019-05-14T05:41:19.467Z,9.67
2019-05-14T05:43:48.390Z,9.74
2019-05-14T05:46:15.450Z,9.58
2019-05-14T05:48:43.864Z,9.61
2019-05-14T05:51:10.524Z,9.73
2019-05-14T05:53:39.281Z,9.62
2019-05-14T05:56:08.743Z,9.62
2019-05-14T05:58:34.315Z,9.91
2019-05-14T06:01:00.986Z,9.86
2019-05-14T06:03:29.959Z,9.93
2019-05-14T06:05:59.162Z,9.84
2019-05-14T06:08:25.460Z,9.80
2019-05-14T06:10:53.282Z,9.89
2019-05-14T06:13:21.662Z,9.97
2019-05-14T06:15:51.908Z,9.99
2019-05-14T06:18:19.487Z,10.07
2019-05-14T06:20:45.562Z,10.17
2019-05-14T06:23:12.272Z,10.36
2019-05-14T06:25:39.990Z,10.41
2019-05-14T06:28:08.672Z,10.55
2019-05-14T06:30:40.329Z,10.49
2019-05-14T06:33:09.270Z,10.67
2019-05-14T06:35:35.989Z,10.67
2019-05-14T06:38:02.630Z,10.60
2019-05-14T06:40:29.239Z,10.81
2019-05-14T06:42:55.872Z,10.95
2019-05-14T06:45:24.695Z,11.09
2019-05-14T06:47:51.588Z,11.19
2019-05-14T06:50:19.042Z,11.01
2019-05-14T06:52:49.211Z,11.15
2019-05-14T06:55:18.075Z,11.27
2019-05-14T06:57:45.143Z,11.39
2019-05-14T07:00:12.019Z,11.35
2019-05-14T07:02:43.535Z,11.50
2019-05-14T07:05:11.277Z,11.52
2019-05-14T07:07:40.405Z,11.43
2019-05-14T07:10:08.958Z,11.48
2019-05-14T07:12:35.664Z,11.58
2019-05-14T07:15:03.876Z,11.72
2019-05-14T07:17:31.956Z,11.58
2019-05-14T07:19:58.574Z,11.55
2019-05-14T07:22:25.322Z,11.63
2019-05-14T07:24:52.515Z,11.66
2019-05-14T07:27:21.368Z,11.66
2019-05-14T07:29:49.846Z,11.70
2019-05-14T07:32:19.132Z,11.50
2019-05-14T07:34:48.033Z,11.48
2019-05-14T07:37:14.319Z,11.55
2019-05-14T07:39:40.963Z,11.59
2019-05-14T07:42:09.778Z,11.41
2019-05-14T07:44:36.196Z,11.23
2019-05-14T07:47:08.251Z,11.38
2019-05-14T07:49:38.545Z,11.38
2019-05-14T07:52:05.484Z,11.28
2019-05-14T07:54:33.238Z,11.35
2019-05-14T07:56:59.899Z,11.30
2019-05-14T07:59:28.564Z,11.25
2019-05-14T08:01:55.707Z,11.25
2019-05-14T08:04:22.317Z,11.31
2019-05-14T08:06:48.933Z,11.35
2019-05-14T08:09:15.509Z,11.54
2019-05-14T08:11:42.146Z,11.47
2019-05-14T08:14:09.183Z,11.53
2019-05-14T08:16:37.956Z,11.58
2019-05-14T08:19:23.021Z,11.46
2019-05-14T08:21:35.216Z,11.43
2019-05-14T08:24:03.016Z,11.60
2019-05-14T08:26:31.456Z,11.55
2019-05-14T08:28:58.128Z,11.66
2019-05-14T08:31:24.806Z,11.47
2019-05-14T08:33:51.498Z,11.47
2019-05-14T08:36:18.549Z,11.51
2019-05-14T08:38:47.423Z,11.55
2019-05-14T08:41:14.311Z,11.63
2019-05-14T08:43:40.918Z,11.60
2019-05-14T08:46:08.252Z,11.66
2019-05-14T08:48:35.092Z,11.70
2019-05-14T08:51:01.696Z,11.56
2019-05-14T08:53:29.614Z,11.61
2019-05-14T08:55:59.052Z,11.69
2019-05-14T08:58:26.195Z,11.64
2019-05-14T09:00:53.087Z,11.72
2019-05-14T09:03:19.815Z,11.84
2019-05-14T09:05:49.261Z,11.72
2019-05-14T09:08:16.019Z,11.59
2019-05-14T09:10:42.671Z,11.53
2019-05-14T09:13:09.270Z,11.59
2019-05-14T09:15:38.339Z,11.58
2019-05-14T09:18:04.576Z,11.42
2019-05-14T09:20:31.289Z,11.25
2019-05-14T09:22:59.524Z,11.23
2019-05-14T09:25:29.035Z,11.07
2019-05-14T09:27:54.956Z,11.11
2019-05-14T09:30:22.895Z,11.12
2019-05-14T09:32:49.626Z,11.06
2019-05-14T09:35:18.872Z,11.06
2019-05-14T09:37:44.904Z,11.05
2019-05-14T09:40:11.646Z,10.84
2019-05-14T09:42:39.264Z,10.78
2019-05-14T09:45:11.124Z,10.91
2019-05-14T09:47:38.766Z,10.66
2019-05-14T09:50:16.655Z,10.53
2019-05-14T09:52:39.501Z,10.52
2019-05-14T09:55:06.243Z,10.30
2019-05-14T09:58:02.102Z,10.36
2019-05-14T10:00:39.010Z,10.46
2019-05-14T10:03:46.023Z,10.34
2019-05-14T10:06:12.675Z,10.34
2019-05-14T10:08:39.331Z,10.20
2019-05-14T10:11:07.177Z,10.21
2019-05-14T10:13:39.037Z,10.03
2019-05-14T10:16:04.990Z,9.91
2019-05-14T10:18:32.399Z,9.93
2019-05-14T10:20:59.216Z,9.87
2019-05-14T10:23:28.314Z,9.53
2019-05-14T10:25:57.559Z,9.45
2019-05-14T10:28:24.201Z,9.35
2019-05-14T10:30:50.836Z,9.39
2019-05-14T10:33:18.087Z,9.44
2019-05-14T10:35:48.187Z,9.50
2019-05-14T10:38:14.199Z,9.40
2019-05-14T10:40:41.984Z,9.31
2019-05-14T10:43:10.055Z,9.41
2019-05-14T10:45:38.449Z,9.15
2019-05-14T10:48:05.398Z,9.02
2019-05-14T10:50:32.017Z,8.83
2019-05-14T10:52:59.765Z,8.82
2019-05-14T10:55:27.988Z,8.85
2019-05-14T10:57:54.851Z,8.80
2019-05-14T11:00:22.220Z,8.43
2019-05-14T11:02:49.282Z,8.31
2019-05-14T11:05:18.548Z,8.33
2019-05-14T11:07:44.671Z,8.39
2019-05-14T11:10:11.934Z,8.29
2019-05-14T11:12:39.559Z,8.17
2019-05-14T11:15:09.556Z,8.31
2019-05-14T11:17:36.157Z,8.27
2019-05-14T11:20:04.451Z,8.38
2019-05-14T11:22:32.249Z,8.57
2019-05-14T11:24:59.298Z,8.53
2019-05-14T11:27:26.013Z,8.61
2019-05-14T11:29:54.156Z,8.63
2019-05-14T11:32:20.815Z,8.75
2019-05-14T11:34:47.409Z,8.89
2019-05-14T11:37:14.067Z,8.93
2019-05-14T11:39:40.668Z,8.91
2019-05-14T11:42:08.723Z,9.11
2019-05-14T11:44:37.998Z,9.10
2019-05-14T11:47:03.993Z,8.96
2019-05-14T11:49:30.584Z,8.82
2019-05-14T11:52:06.893Z,8.86
2019-05-14T11:54:26.159Z,8.95
2019-05-14T11:56:54.108Z,9.14
2019-05-14T11:59:20.698Z,9.05
2019-05-14T12:01:49.394Z,9.03
2019-05-14T12:04:15.797Z,9.01
2019-05-14T12:06:42.532Z,8.95
2019-05-14T12:09:11.996Z,9.00
2019-05-14T12:11:38.789Z,9.19
2019-05-14T12:14:05.632Z,9.47
2019-05-14T12:16:34.031Z,9.47
2019-05-14T12:19:02.670Z,9.30
2019-05-14T12:21:29.322Z,9.29
2019-05-14T12:24:02.956Z,9.12
2019-05-14T12:26:24.515Z,9.14
2019-05-14T12:28:51.164Z,9.30
2019-05-14T12:31:17.765Z,9.42
2019-05-14T12:33:44.436Z,9.49
2019-05-14T12:36:12.788Z,9.51
2019-05-14T12:38:39.484Z,9.46
2019-05-14T12:41:08.942Z,9.11
2019-05-14T12:43:34.751Z,9.16
2019-05-14T12:46:02.207Z,9.21
2019-05-14T12:48:29.782Z,9.27
2019-05-14T12:50:59.462Z,9.28
2019-05-14T12:53:28.531Z,9.42
2019-05-14T12:55:54.151Z,9.42
2019-05-14T12:58:22.348Z,9.15
2019-05-14T13:00:49.090Z,9.17
2019-05-14T13:03:15.966Z,9.19
2019-05-14T13:05:42.592Z,9.31
2019-05-14T13:08:11.449Z,9.15
2019-05-14T13:10:38.730Z,9.22
2019-05-14T13:13:05.445Z,9.35
2019-05-14T13:15:33.965Z,9.38
2019-05-14T13:18:01.275Z,9.06
2019-05-14T13:20:29.112Z,9.06
2019-05-14T13:22:55.954Z,8.82
2019-05-14T13:25:22.546Z,8.91
2019-05-14T13:27:51.420Z,9.00
2019-05-14T13:30:18.643Z,8.94
2019-05-14T13:32:48.750Z,9.00
2019-05-14T13:35:19.341Z,8.94
2019-05-14T13:37:44.646Z,9.02
2019-05-14T13:40:13.982Z,9.10
2019-05-14T13:42:44.599Z,8.98
2019-05-14T13:45:12.990Z,9.05
2019-05-14T13:47:39.606Z,9.06
2019-05-14T13:50:08.586Z,9.19
2019-05-14T13:52:35.508Z,9.35
2019-05-14T13:55:02.800Z,9.46
2019-05-14T13:57:29.616Z,9.58
2019-05-14T13:59:58.855Z,9.57
2019-05-14T14:02:27.921Z,9.48
2019-05-14T14:04:53.332Z,9.47
2019-05-14T14:07:19.975Z,9.58
2019-05-14T14:09:46.584Z,9.48
2019-05-14T14:12:13.317Z,9.23
2019-05-14T14:14:39.933Z,9.00
2019-05-14T14:17:06.518Z,8.92
2019-05-14T14:19:33.365Z,9.13
2019-05-14T14:22:00.350Z,8.96
2019-05-14T14:24:31.589Z,8.81
2019-05-14T14:27:04.600Z,8.80
2019-05-14T14:29:31.651Z,8.83
2019-05-14T14:31:58.946Z,8.67
2019-05-14T14:34:25.808Z,8.86
2019-05-14T14:36:55.075Z,9.06
2019-05-14T14:39:20.958Z,8.79
2019-05-14T14:41:48.834Z,8.79
2019-05-14T14:44:15.862Z,8.71
2019-05-14T14:46:42.481Z,8.77
2019-05-14T14:49:10.760Z,8.91
2019-05-14T14:51:44.066Z,8.84
2019-05-14T14:54:14.465Z,8.90
2019-05-14T14:56:34.837Z,9.05
2019-05-14T14:59:01.498Z,8.97
2019-05-14T15:01:30.032Z,8.93
2019-05-14T15:04:00.069Z,8.89
2019-05-14T15:06:30.561Z,8.83
2019-05-14T15:08:58.918Z,8.64
2019-05-14T15:11:29.213Z,8.69
2019-05-14T15:13:54.132Z,8.83
2019-05-14T15:16:22.406Z,8.89
2019-05-14T15:18:49.745Z,8.76
2019-05-14T15:21:19.141Z,8.66
2019-05-14T15:24:02.909Z,8.63
2019-05-14T15:26:16.124Z,8.83
2019-05-14T15:28:44.024Z,8.76
2019-05-14T15:31:12.458Z,8.69
2019-05-14T15:36:21.774Z,9.10
2019-05-14T15:38:48.689Z,9.22
2019-05-14T15:41:19.984Z,9.20
2019-05-14T15:43:47.197Z,9.19
2019-05-14T15:46:13.796Z,8.71
2019-05-14T15:48:40.648Z,8.38
2019-05-14T15:51:14.255Z,8.30
2019-05-14T15:53:38.671Z,8.32
2019-05-14T15:56:07.906Z,8.35
2019-05-14T15:58:34.838Z,8.48
2019-05-14T16:01:02.540Z,8.46
2019-05-14T16:03:29.119Z,8.76
2019-05-14T16:05:55.751Z,8.95
2019-05-14T16:08:22.950Z,8.96
2019-05-14T16:10:49.786Z,9.02
2019-05-14T16:13:20.888Z,9.04
2019-05-14T16:15:44.877Z,8.82
2019-05-14T16:18:18.535Z,8.74
2019-05-14T16:20:40.326Z,8.87
2019-05-14T16:23:10.568Z,8.86
2019-05-14T16:25:38.046Z,8.62
2019-05-14T16:28:08.561Z,8.69
2019-05-14T16:30:35.074Z,8.36
2019-05-14T16:33:01.645Z,8.33
2019-05-14T16:35:28.625Z,8.12
2019-05-14T16:37:55.403Z,8.17
2019-05-14T16:40:22.314Z,8.15
2019-05-14T16:42:48.910Z,8.33
2019-05-14T16:45:18.474Z,7.94
2019-05-14T16:47:44.403Z,7.90
2019-05-14T16:50:11.494Z,7.91
2019-05-14T16:52:42.155Z,7.85
2019-05-14T16:55:20.187Z,7.56
2019-05-14T16:57:38.660Z,7.48
2019-05-14T17:00:09.414Z,7.65
2019-05-14T17:02:36.171Z,7.57
2019-05-14T17:05:03.986Z,7.64
2019-05-14T17:07:31.030Z,7.63
2019-05-14T17:09:58.175Z,7.54
2019-05-14T17:12:24.939Z,7.67
2019-05-14T17:14:52.775Z,7.56
2019-05-14T17:17:20.167Z,7.68
2019-05-14T17:19:48.035Z,7.45
2019-05-14T17:22:25.344Z,7.32
2019-05-14T17:24:43.394Z,7.22
2019-05-14T17:27:11.061Z,7.26
2019-05-14T17:29:38.917Z,7.26
2019-05-14T17:32:06.262Z,7.18
2019-05-14T17:34:32.900Z,7.31
2019-05-14T17:36:59.530Z,7.29
2019-05-14T17:39:27.316Z,7.18
2019-05-14T17:41:53.908Z,7.42
2019-05-14T17:44:20.516Z,7.53
2019-05-14T17:46:48.933Z,7.20
2019-05-14T17:49:15.739Z,7.13
2019-05-14T17:51:42.371Z,7.07
2019-05-14T17:54:09.311Z,7.22
2019-05-14T17:56:35.960Z,7.15
2019-05-14T17:59:03.915Z,7.13
2019-05-14T18:01:30.543Z,7.11
2019-05-14T18:03:58.443Z,7.17
2019-05-14T18:06:28.580Z,7.20
2019-05-14T18:08:55.448Z,7.20
2019-05-14T18:11:22.053Z,7.15
2019-05-14T18:13:48.848Z,7.27
2019-05-14T18:16:18.944Z,7.26
2019-05-14T18:18:45.307Z,7.40
2019-05-14T18:21:12.777Z,7.36
2019-05-14T18:23:42.233Z,7.18
2019-05-14T18:26:09.436Z,7.11
2019-05-14T18:28:38.308Z,7.05
2019-05-14T18:31:06.274Z,7.05
2019-05-14T18:33:32.865Z,6.97
2019-05-14T18:35:59.516Z,7.10
2019-05-14T18:38:28.886Z,7.29
2019-05-14T18:40:54.670Z,7.27
2019-05-14T18:43:24.249Z,7.32
2019-05-14T18:45:50.933Z,7.37
2019-05-14T18:48:19.379Z,7.44
2019-05-14T18:50:48.408Z,7.37
2019-05-14T18:53:15.772Z,7.52
2019-05-14T18:55:42.433Z,7.69
2019-05-14T18:58:09.017Z,7.56
2019-05-14T19:00:35.628Z,7.70
2019-05-14T19:03:02.253Z,7.65
2019-05-14T19:05:29.560Z,7.69
2019-05-14T19:07:56.391Z,7.70
2019-05-14T19:10:23.059Z,7.76
2019-05-14T19:12:50.297Z,7.78
2019-05-14T19:15:18.543Z,7.85
2019-05-14T19:17:45.452Z,7.88
2019-05-14T19:20:13.367Z,7.89
2019-05-14T19:22:40.194Z,7.89
2019-05-14T19:25:08.925Z,7.77
2019-05-14T19:27:37.823Z,7.63
2019-05-14T19:30:05.626Z,7.52
2019-05-14T19:32:32.283Z,7.60
2019-05-14T19:34:59.991Z,7.39
2019-05-14T19:37:28.959Z,7.61
2019-05-14T19:39:55.147Z,7.64
2019-05-14T19:42:22.215Z,7.62
2019-05-14T19:44:49.164Z,7.68
2019-05-14T19:47:18.711Z,7.67
2019-05-14T19:49:45.594Z,7.70
2019-05-14T19:52:12.298Z,7.71
2019-05-14T19:54:38.953Z,7.67
2019-05-14T19:57:05.569Z,7.72
2019-05-14T19:59:32.141Z,7.76
2019-05-14T20:02:02.501Z,7.71
2019-05-14T20:04:29.365Z,7.65
2019-05-14T20:06:57.557Z,7.67
2019-05-14T20:09:24.187Z,7.72
2019-05-14T20:11:50.805Z,7.64
2019-05-14T20:14:17.512Z,7.49
2019-05-14T20:16:44.491Z,7.59
2019-05-14T20:19:12.258Z,7.70
2019-05-14T20:21:39.209Z,7.78
2019-05-14T20:24:06.038Z,7.82
2019-05-14T20:26:32.613Z,7.96
2019-05-14T20:28:59.241Z,7.98
2019-05-14T20:31:25.868Z,8.03
2019-05-14T20:33:52.465Z,7.97
2019-05-14T20:36:19.117Z,8.00
2019-05-14T20:38:48.147Z,7.99
2019-05-14T20:41:18.107Z,7.98
2019-05-14T20:43:45.017Z,8.00
2019-05-14T20:46:11.717Z,7.97
2019-05-14T20:48:39.077Z,7.97
2019-05-14T20:51:08.837Z,7.95
2019-05-14T20:53:35.106Z,7.92
2019-05-14T20:56:01.741Z,7.96
2019-05-14T20:58:28.426Z,7.96
2019-05-14T21:00:55.065Z,7.96
2019-05-14T21:03:21.706Z,7.97
2019-05-14T21:05:49.185Z,7.94
2019-05-14T21:08:16.097Z,7.97
2019-05-14T21:10:42.715Z,7.98
2019-05-14T21:13:09.823Z,7.98
2019-05-14T21:15:38.997Z,7.98
2019-05-14T21:18:05.051Z,7.97
2019-05-14T21:20:31.831Z,7.96
2019-05-14T21:22:58.741Z,7.95
2019-05-14T21:25:25.597Z,7.93
2019-05-14T21:27:52.406Z,7.95
2019-05-14T21:30:21.929Z,7.95
2019-05-14T21:32:49.690Z,7.96
2019-05-14T21:35:16.375Z,7.91
2019-05-14T21:37:43.095Z,7.89
2019-05-14T21:40:09.794Z,7.93
2019-05-14T21:42:38.391Z,7.95
2019-05-14T21:45:09.073Z,7.91
2019-05-14T21:47:34.075Z,7.91
2019-05-14T21:50:00.705Z,7.91
2019-05-14T21:52:28.966Z,7.89
2019-05-14T21:54:58.615Z,7.90
2019-05-14T21:57:25.734Z,7.88
2019-05-14T21:59:52.351Z,7.88
2019-05-14T22:02:24.943Z,7.92
2019-05-14T22:04:50.306Z,7.85
2019-05-14T22:07:18.796Z,7.89
2019-05-14T22:09:45.380Z,7.92
2019-05-14T22:12:13.233Z,7.92
2019-05-14T22:14:39.869Z,7.94
2019-05-14T22:17:08.002Z,7.93
2019-05-14T22:19:34.880Z,7.91
2019-05-14T22:22:01.518Z,7.91
2019-05-14T22:24:28.779Z,7.93
2019-05-14T22:26:58.286Z,7.94
2019-05-14T22:29:25.066Z,7.93
2019-05-14T22:31:51.724Z,7.89
2019-05-14T22:34:18.473Z,7.92
2019-05-14T22:36:45.168Z,7.93
2019-05-14T22:39:11.790Z,7.96
2019-05-14T22:41:38.522Z,7.95
2019-05-14T22:44:05.160Z,7.94
2019-05-14T22:46:32.147Z,7.94
2019-05-14T22:48:58.817Z,7.90
2019-05-14T22:51:25.467Z,7.94
2019-05-14T22:53:52.121Z,7.99
2019-05-14T22:56:18.796Z,7.97
2019-05-14T22:58:45.428Z,7.68
2019-05-14T23:01:14.836Z,7.70
2019-05-14T23:03:40.574Z,7.74
2019-05-14T23:06:08.996Z,7.74
2019-05-14T23:08:36.068Z,7.82
2019-05-14T23:11:02.816Z,7.89
2019-05-14T23:13:30.965Z,7.76
2019-05-14T23:15:58.878Z,7.75
2019-05-14T23:18:25.768Z,7.83
2019-05-14T23:20:52.406Z,7.61
2019-05-14T23:23:19.014Z,7.71
2019-05-14T23:25:45.712Z,7.63
2019-05-14T23:28:12.344Z,7.64
2019-05-14T23:30:39.039Z,7.44
2019-05-14T23:33:07.941Z,7.40
2019-05-14T23:35:34.558Z,7.18
2019-05-14T23:38:02.352Z,7.18
2019-05-14T23:40:30.390Z,7.29
2019-05-14T23:42:58.899Z,7.10
2019-05-14T23:45:28.417Z,7.18
2019-05-14T23:47:55.368Z,7.15
2019-05-14T23:50:22.497Z,7.00
2019-05-14T23:52:49.502Z,7.18
2019-05-14T23:55:18.245Z,7.33
2019-05-14T23:57:45.258Z,7.35
